Govan, Canada
Current Conditions -  °F | °C
As of 3:00 AM on Friday 28 Nov 2014 (Local Time) from CYQR Reporting Station
Light Snow Light Snow  
Wind Chill: -7°   Ceiling: 2400
Heat Index: 10°   Visibility: 4mi
Dew Point:   Wind: 17mph
Humidity: 85%   Direction: 100°E
Pressure: 29.83"   Gusts: NA
Location:  51.32°N, 105°W
Report Text: CYQR 280900Z 10015KT 4SM -SN DRSN OVC024 M12/M14 A2983 RMK SC8 SLP144
Loading
Personal Weather Stations






























Interactive Weather Map New forecast layout! Learn more

10-Day Weather Forecast

Advertisements
Track Severe Weather on mobile